METAR AND TAF INFORMATION
METAR FOR EPKK
ADDS - METARS form results

(1929 UTC 27 January 2021)
Data provider http://aviationweather.gov/metar/data/
 
METAR text: EPKK 271900Z 23005KT 9999 FEW021 BKN030 M02/M04 Q1012 R25/29//95
Conditions at: EPKK (KRAKOW/BALICE , PL) observed 1900 UTC 27 January 2021
Temperature: -2.0°C (28°F)
Dewpoint: -4.0°C (25°F) [RH = 86%]
Pressure (altimeter): 29.88 inches Hg (1012.0 mb)
Winds: from the SW (230 degrees) at 6 MPH (5 knots; 2.6 m/s)
Visibility: 6 or more miles (10+ km)
Ceiling: 3000 feet AGL
Clouds: few clouds at 2100 feet AGL
broken clouds at 3000 feet AGL
Weather: no significant weather observed at this time

METAR text: EPKK 271830Z 22005KT 9999 FEW025 BKN032 M01/M04 Q1012 R25/29//95
Conditions at: EPKK (KRAKOW/BALICE , PL) observed 1830 UTC 27 January 2021
Temperature: -1.0°C (30°F)
Dewpoint: -4.0°C (25°F) [RH = 80%]
Pressure (altimeter): 29.88 inches Hg (1012.0 mb)
Winds: from the SW (220 degrees) at 6 MPH (5 knots; 2.6 m/s)
Visibility: 6 or more miles (10+ km)
Ceiling: 3200 feet AGL
Clouds: few clouds at 2500 feet AGL
broken clouds at 3200 feet AGL
Weather: no significant weather observed at this time

Forecast for: EPKK (KRAKOW/BALICE , PL)
Text: TAF EPKK 271730Z 2718/2818 24004KT 9999 BKN033
Forecast period: 1800 UTC 27 January 2021 to 1800 UTC 28 January 2021
Forecast type: FROM: standard forecast or significant change
Winds: from the WSW (240 degrees) at 5 MPH (4 knots; 2.1 m/s)
Visibility: 6 or more miles (10+ km)
Ceiling: 3300 feet AGL
Clouds: broken clouds at 3300 feet AGL
Weather: no significant weather forecast for this period
Text: PROB30 2804/2807 3000 BR
Forecast period: 0400 to 0700 UTC 28 January 2021
Forecast type: PROBABLE: 30 percent likelihood of the following during this time
Visibility: 1.86 miles (2.99 km)
Ceiling: unknown
Clouds: missing
Weather: BR  (mist)
Text: TEMPO 2815/2817 4000 -SN BR BKN013
Forecast period: 1500 to 1700 UTC 28 January 2021
Forecast type: TEMPORARY: The following changes expected for less than half the time period
Visibility: 2.49 miles (4.01 km)
Ceiling: 1300 feet AGL
Clouds: broken clouds at 1300 feet AGL
Weather: -SN BR  (light snow, mist)

 AIRPORT MAP

 RUNWAY INFORMATION
Runway 07 Runway length 8366 ft Runway width 197 ft
Runway elevation 792 ft Runway displaced threshold 0 ft Runway heading 78
Runway 25 Runway length 8366 ft Runway width 197 ft
Runway elevation 779 ft Runway displaced threshold 784 ft Runway heading 258

 AIRPORT FREQUENCIES
Type APP Name KRAKOW APP Frequency 121.075 MHZ
Type ATIS Name ATIS Frequency 126.125 MHZ
Type DIR Name KRAKOW DIR Frequency 123.8 MHZ
Type TWR Name KRAKOW DEL Frequency 118.1 MHZ
Type TWR Name KRAKOW TWR Frequency 123.25 MHZ

 AIRPORT NEAR NAVIGATION AIDS
Type NDB Name Krakow Frequency 353 KHZ